Time;durP1;ratioP1;P1;durP2;ratioP2;P2;SDS_P1;SDS_P2;PMS_P1;PMS_P2;Temp;Humidity;BMP_temperature;BMP_pressure;BME280_temperature;BME280_humidity;BME280_pressure;Samples;Min_cycle;Max_cycle;Signal;HPM_P1;HPM_P2
2022/05/23 00:01:34;;;;;;;6.43;1.92;;;;;;;;;;5033566;28;20071;-39
2022/05/23 00:04:00;;;;;;;4.10;2.10;;;;;;;;;;5033436;28;20032;-39
2022/05/23 00:06:25;;;;;;;6.28;2.30;;;;;;;;;;5033383;28;20028;-39
2022/05/23 00:08:51;;;;;;;3.28;2.13;;;;;;;;;;5033203;28;20067;-40
2022/05/23 00:11:18;;;;;;;3.25;1.75;;;;;;;;;;5034418;28;20380;-39
2022/05/23 00:13:43;;;;;;;9.30;2.10;;;;;;;;;;5034193;28;20457;-39
2022/05/23 00:16:09;;;;;;;3.33;2.10;;;;;;;;;;5034467;28;20032;-39
2022/05/23 00:18:35;;;;;;;6.80;2.10;;;;;;;;;;5034455;28;20021;-39
2022/05/23 00:21:00;;;;;;;3.83;2.00;;;;;;;;;;5034649;28;20079;-39
2022/05/23 00:23:25;;;;;;;5.03;2.50;;;;;;;;;;5033004;28;20159;-39
2022/05/23 00:25:51;;;;;;;4.43;1.80;;;;;;;;;;5033945;28;21330;-39
2022/05/23 00:28:16;;;;;;;4.38;2.40;;;;;;;;;;5032718;28;20025;-39
2022/05/23 00:30:42;;;;;;;5.35;2.10;;;;;;;;;;5034015;28;20373;-40
2022/05/23 00:35:54;;;;;;;4.05;2.00;;;;;;;;;;5033853;28;20040;-39
2022/05/23 00:38:19;;;;;;;5.10;2.38;;;;;;;;;;5034002;28;20078;-39
2022/05/23 00:43:54;;;;;;;4.25;1.95;;;;;;;;;;5034096;28;20029;-39
2022/05/23 00:46:20;;;;;;;4.13;1.90;;;;;;;;;;5033820;28;20021;-39
2022/05/23 00:48:45;;;;;;;7.25;2.10;;;;;;;;;;5032582;28;20028;-39
2022/05/23 00:51:12;;;;;;;6.18;2.42;;;;;;;;;;5033783;28;20040;-39
2022/05/23 00:53:44;;;;;;;5.47;3.00;;;;;;;;;;5033655;28;20097;-39
2022/05/23 00:56:10;;;;;;;5.22;2.08;;;;;;;;;;5031588;28;20059;-39
2022/05/23 00:58:40;;;;;;;3.85;2.33;;;;;;;;;;5033974;28;20064;-39
2022/05/23 01:01:07;;;;;;;4.00;2.88;;;;;;;;;;5033655;28;20017;-39
2022/05/23 01:03:32;;;;;;;6.65;2.50;;;;;;;;;;5033576;28;20026;-39
2022/05/23 01:05:58;;;;;;;9.07;3.10;;;;;;;;;;5033265;28;20051;-40
2022/05/23 01:08:24;;;;;;;4.57;2.38;;;;;;;;;;5033547;28;20079;-39
2022/05/23 01:10:51;;;;;;;4.70;2.78;;;;;;;;;;5032277;28;20030;-39
2022/05/23 01:13:16;;;;;;;5.53;3.10;;;;;;;;;;5033433;28;20353;-39
2022/05/23 01:15:46;;;;;;;6.00;2.70;;;;;;;;;;5033135;28;20034;-39
2022/05/23 01:18:11;;;;;;;4.28;2.58;;;;;;;;;;5033314;28;20021;-39
2022/05/23 01:20:37;;;;;;;3.78;2.30;;;;;;;;;;5033097;28;20079;-40
2022/05/23 01:23:20;;;;;;;4.43;2.50;;;;;;;;;;5033173;28;20083;-39
2022/05/23 01:25:46;;;;;;;5.82;2.65;;;;;;;;;;5033449;28;20376;-39
2022/05/23 01:28:12;;;;;;;5.47;2.60;;;;;;;;;;5033376;28;20032;-39
2022/05/23 01:30:40;;;;;;;6.10;2.65;;;;;;;;;;5032891;28;20030;-39
2022/05/23 01:33:06;;;;;;;4.53;2.75;;;;;;;;;;5032680;28;20059;-39
2022/05/23 01:35:31;;;;;;;11.35;3.08;;;;;;;;;;5032694;28;20061;-39
2022/05/23 01:37:57;;;;;;;4.15;2.65;;;;;;;;;;5033065;28;20023;-39
2022/05/23 01:40:22;;;;;;;4.50;2.72;;;;;;;;;;5033130;28;20048;-39
2022/05/23 01:42:47;;;;;;;6.47;2.58;;;;;;;;;;5033320;28;20097;-39
2022/05/23 01:45:14;;;;;;;5.35;2.95;;;;;;;;;;5032983;28;20025;-40
2022/05/23 01:47:39;;;;;;;7.80;2.85;;;;;;;;;;5031397;28;20510;-40
2022/05/23 01:50:05;;;;;;;6.45;2.55;;;;;;;;;;5032993;28;20030;-39
2022/05/23 01:52:31;;;;;;;5.32;2.38;;;;;;;;;;5031659;28;20018;-39
2022/05/23 01:54:56;;;;;;;7.60;2.90;;;;;;;;;;5032951;28;20495;-39
2022/05/23 01:57:22;;;;;;;5.40;2.72;;;;;;;;;;5033121;28;20047;-39
2022/05/23 02:02:31;;;;;;;5.47;3.08;;;;;;;;;;5032535;28;20033;-39
2022/05/23 02:04:58;;;;;;;6.65;3.03;;;;;;;;;;5031656;28;20092;-39
2022/05/23 02:07:23;;;;;;;7.05;2.83;;;;;;;;;;5034848;28;20457;-39
2022/05/23 02:09:48;;;;;;;13.52;3.40;;;;;;;;;;5036813;28;20040;-39
2022/05/23 02:12:17;;;;;;;12.10;4.00;;;;;;;;;;5036695;28;20457;-39
2022/05/23 02:14:43;;;;;;;6.50;2.90;;;;;;;;;;5036433;28;20083;-39
2022/05/23 02:17:10;;;;;;;3.78;2.72;;;;;;;;;;5036392;28;20033;-39
2022/05/23 02:19:36;;;;;;;4.10;2.90;;;;;;;;;;5036719;28;20029;-39
2022/05/23 02:22:02;;;;;;;4.75;2.75;;;;;;;;;;5036642;28;20021;-39
2022/05/23 02:24:27;;;;;;;4.10;2.63;;;;;;;;;;5031926;28;20040;-39
2022/05/23 02:26:52;;;;;;;6.65;2.72;;;;;;;;;;5016548;28;20057;-39
2022/05/23 02:29:18;;;;;;;4.53;2.70;;;;;;;;;;5015460;28;20057;-39
2022/05/23 02:31:44;;;;;;;6.55;2.67;;;;;;;;;;5016707;28;20381;-39
2022/05/23 02:34:10;;;;;;;5.00;2.80;;;;;;;;;;5016682;28;20049;-39
2022/05/23 02:36:35;;;;;;;4.70;3.22;;;;;;;;;;5016450;28;20057;-39
2022/05/23 02:39:01;;;;;;;4.45;3.03;;;;;;;;;;5015168;28;20412;-39
2022/05/23 02:41:26;;;;;;;3.45;2.60;;;;;;;;;;5016237;28;20075;-39
2022/05/23 02:43:52;;;;;;;5.20;3.40;;;;;;;;;;5015033;28;20067;-39
2022/05/23 02:46:17;;;;;;;8.02;2.92;;;;;;;;;;5016132;28;20397;-39
2022/05/23 02:48:43;;;;;;;5.88;3.05;;;;;;;;;;5015097;28;20388;-39
2022/05/23 02:51:08;;;;;;;3.70;2.70;;;;;;;;;;5016420;28;20080;-39
2022/05/23 02:53:33;;;;;;;3.00;2.65;;;;;;;;;;5014877;28;20459;-40
2022/05/23 02:55:59;;;;;;;3.55;2.80;;;;;;;;;;5014878;28;20041;-39
2022/05/23 02:58:24;;;;;;;5.63;3.15;;;;;;;;;;5014851;28;20022;-40
2022/05/23 03:00:50;;;;;;;9.65;3.45;;;;;;;;;;5015881;28;20358;-40
2022/05/23 03:03:15;;;;;;;9.23;3.60;;;;;;;;;;5016011;28;20045;-39
2022/05/23 03:05:40;;;;;;;6.65;3.67;;;;;;;;;;5015839;28;20080;-39
2022/05/23 03:08:06;;;;;;;6.30;3.28;;;;;;;;;;5014751;28;20029;-39
2022/05/23 03:10:32;;;;;;;6.10;3.58;;;;;;;;;;5014631;28;20084;-39
2022/05/23 03:12:57;;;;;;;18.08;4.82;;;;;;;;;;5015884;28;20484;-39
2022/05/23 03:15:23;;;;;;;6.03;3.35;;;;;;;;;;5014381;28;20465;-39
2022/05/23 03:17:48;;;;;;;7.03;3.35;;;;;;;;;;5013761;28;20038;-39
2022/05/23 03:20:14;;;;;;;7.28;3.42;;;;;;;;;;5015552;28;20037;-39
2022/05/23 03:28:07;;;;;;;7.32;2.75;;;;;;;;;;5015260;28;20025;-40
2022/05/23 03:30:33;;;;;;;7.25;3.03;;;;;;;;;;5014336;28;20030;-39
2022/05/23 03:32:59;;;;;;;13.23;4.53;;;;;;;;;;5015524;28;20021;-40
2022/05/23 03:35:26;;;;;;;15.63;3.72;;;;;;;;;;5015190;28;20474;-39
2022/05/23 03:37:51;;;;;;;18.00;4.50;;;;;;;;;;5015345;28;20116;-38
2022/05/23 03:40:17;;;;;;;13.05;4.72;;;;;;;;;;5014070;28;20026;-39
2022/05/23 03:42:42;;;;;;;28.95;4.88;;;;;;;;;;5013849;28;20382;-39
2022/05/23 03:45:08;;;;;;;13.20;4.70;;;;;;;;;;5013711;28;20021;-39
2022/05/23 03:47:34;;;;;;;11.52;4.47;;;;;;;;;;5014035;28;20022;-39
2022/05/23 03:49:59;;;;;;;13.05;3.75;;;;;;;;;;5015498;28;20022;-39
2022/05/23 03:52:25;;;;;;;7.32;3.00;;;;;;;;;;5013759;28;20049;-39
2022/05/23 03:54:50;;;;;;;17.02;4.43;;;;;;;;;;5013626;28;20068;-39
2022/05/23 03:57:16;;;;;;;8.77;3.13;;;;;;;;;;5015001;28;20381;-39
2022/05/23 03:59:42;;;;;;;10.77;3.92;;;;;;;;;;5013485;28;20545;-39
2022/05/23 04:02:07;;;;;;;27.83;4.13;;;;;;;;;;5014684;28;20018;-38
2022/05/23 04:04:33;;;;;;;12.38;3.83;;;;;;;;;;5013675;28;20113;-38
2022/05/23 04:06:59;;;;;;;10.98;3.30;;;;;;;;;;5014803;28;20026;-38
2022/05/23 04:09:25;;;;;;;6.88;2.58;;;;;;;;;;5014683;28;20034;-39
2022/05/23 04:11:50;;;;;;;13.07;3.28;;;;;;;;;;5014704;28;20034;-39
2022/05/23 04:14:15;;;;;;;8.55;2.67;;;;;;;;;;5014426;28;20448;-39
2022/05/23 04:16:43;;;;;;;17.23;3.20;;;;;;;;;;5014916;28;20022;-38
2022/05/23 04:19:09;;;;;;;8.70;2.78;;;;;;;;;;5014937;28;20375;-38
2022/05/23 04:21:35;;;;;;;10.55;2.60;;;;;;;;;;5028339;28;20029;-39
2022/05/23 04:24:00;;;;;;;5.88;2.30;;;;;;;;;;5034205;28;20448;-39
2022/05/23 04:26:25;;;;;;;5.13;2.72;;;;;;;;;;5034211;28;20025;-39
2022/05/23 04:28:51;;;;;;;5.25;2.45;;;;;;;;;;5032618;28;20022;-39
2022/05/23 04:31:17;;;;;;;11.68;2.63;;;;;;;;;;5034075;28;20155;-38
2022/05/23 04:36:26;;;;;;;5.53;2.08;;;;;;;;;;5034196;28;20037;-38
2022/05/23 04:38:52;;;;;;;4.13;2.10;;;;;;;;;;5033834;28;20017;-39
2022/05/23 04:41:17;;;;;;;7.82;2.72;;;;;;;;;;5032431;28;20032;-39
2022/05/23 04:43:43;;;;;;;8.35;2.40;;;;;;;;;;5033789;28;20029;-38
2022/05/23 04:46:08;;;;;;;8.50;1.70;;;;;;;;;;5033781;28;20025;-38
2022/05/23 04:51:17;;;;;;;18.27;2.20;;;;;;;;;;5033948;28;20047;-38
2022/05/23 04:53:43;;;;;;;12.18;2.30;;;;;;;;;;5033628;28;20445;-38
2022/05/23 04:56:09;;;;;;;14.00;2.10;;;;;;;;;;5033472;28;20651;-39
2022/05/23 04:58:34;;;;;;;17.67;2.42;;;;;;;;;;5033474;28;20029;-39
2022/05/23 05:01:00;;;;;;;7.68;1.92;;;;;;;;;;5033537;28;20412;-38
2022/05/23 05:03:25;;;;;;;7.53;1.83;;;;;;;;;;5033486;28;20081;-38
2022/05/23 05:05:50;;;;;;;8.45;2.17;;;;;;;;;;5033818;28;20060;-38
2022/05/23 05:08:16;;;;;;;8.30;2.63;;;;;;;;;;5033410;28;20371;-38
2022/05/23 05:10:41;;;;;;;11.35;1.83;;;;;;;;;;5033144;28;20033;-39
2022/05/23 05:13:07;;;;;;;6.53;2.15;;;;;;;;;;5033803;28;20083;-39
2022/05/23 05:15:33;;;;;;;4.47;1.73;;;;;;;;;;5033414;28;20053;-39
2022/05/23 05:17:59;;;;;;;6.57;1.88;;;;;;;;;;5033444;28;20031;-39
2022/05/23 05:20:24;;;;;;;10.52;1.98;;;;;;;;;;5028614;28;20420;-39
2022/05/23 05:22:50;;;;;;;8.63;1.58;;;;;;;;;;5012186;28;20025;-39
2022/05/23 05:25:17;;;;;;;7.07;1.58;;;;;;;;;;5013548;28;20024;-38
2022/05/23 05:27:42;;;;;;;9.45;2.05;;;;;;;;;;5013196;28;20109;-38
2022/05/23 05:30:10;;;;;;;3.85;1.60;;;;;;;;;;5013197;28;20056;-39
2022/05/23 05:32:38;;;;;;;4.82;1.60;;;;;;;;;;5012199;28;20164;-38
2022/05/23 05:35:14;;;;;;;12.55;1.60;;;;;;;;;;5012920;28;20057;-38
2022/05/23 05:37:45;;;;;;;8.30;1.70;;;;;;;;;;5011375;28;20030;-39
2022/05/23 05:40:14;;;;;;;7.90;1.75;;;;;;;;;;5020068;28;20492;-38
2022/05/23 05:42:41;;;;;;;5.55;1.25;;;;;;;;;;5025017;28;20034;-38
2022/05/23 05:45:10;;;;;;;6.60;1.50;;;;;;;;;;5026978;28;20022;-38
2022/05/23 05:47:37;;;;;;;11.95;1.50;;;;;;;;;;5025716;28;20100;-39
2022/05/23 05:50:08;;;;;;;13.85;2.05;;;;;;;;;;5014321;28;20470;-38
2022/05/23 05:52:33;;;;;;;6.60;1.40;;;;;;;;;;5011389;28;21060;-39
2022/05/23 05:55:00;;;;;;;3.95;1.40;;;;;;;;;;5013158;28;20044;-39
2022/05/23 05:57:26;;;;;;;5.57;1.30;;;;;;;;;;5014672;28;20675;-43
2022/05/23 05:59:51;;;;;;;13.73;1.60;;;;;;;;;;5016769;28;20034;-39
2022/05/23 06:02:17;;;;;;;4.43;1.60;;;;;;;;;;5015378;28;20026;-39
2022/05/23 06:04:42;;;;;;;4.55;1.50;;;;;;;;;;5024115;28;20025;-39
2022/05/23 06:12:35;;;;;;;11.40;1.67;;;;;;;;;;5026668;28;20028;-40
2022/05/23 06:15:01;;;;;;;9.25;1.70;;;;;;;;;;5012037;28;20034;-39
2022/05/23 06:17:26;;;;;;;4.70;1.60;;;;;;;;;;5023278;28;20029;-42
2022/05/23 06:19:52;;;;;;;13.15;2.80;;;;;;;;;;5013918;28;20116;-39
2022/05/23 06:22:17;;;;;;;9.82;1.40;;;;;;;;;;5025531;28;20101;-40
2022/05/23 06:24:44;;;;;;;5.13;1.33;;;;;;;;;;5012966;28;20022;-38
2022/05/23 06:27:10;;;;;;;3.67;1.45;;;;;;;;;;5010659;28;20037;-41
2022/05/23 06:29:36;;;;;;;4.40;1.25;;;;;;;;;;5020002;28;20029;-40
2022/05/23 06:32:02;;;;;;;27.58;2.20;;;;;;;;;;5031517;28;20025;-40
2022/05/23 06:34:27;;;;;;;7.97;1.58;;;;;;;;;;5031823;28;20471;-39
2022/05/23 06:36:53;;;;;;;5.30;0.93;;;;;;;;;;5032129;28;20106;-39
2022/05/23 06:39:18;;;;;;;29.77;2.88;;;;;;;;;;5030447;28;20025;-39
2022/05/23 06:41:43;;;;;;;4.97;1.67;;;;;;;;;;5031887;28;20522;-39
2022/05/23 06:44:09;;;;;;;7.13;1.25;;;;;;;;;;5030540;28;20029;-39
2022/05/23 06:46:34;;;;;;;4.28;1.08;;;;;;;;;;5023514;28;20040;-41
2022/05/23 06:49:00;;;;;;;7.00;1.83;;;;;;;;;;5021359;28;20025;-38
2022/05/23 06:51:25;;;;;;;6.13;1.10;;;;;;;;;;5024941;28;20461;-39
2022/05/23 06:53:52;;;;;;;10.35;1.58;;;;;;;;;;5013489;28;20480;-39
2022/05/23 06:56:18;;;;;;;2.55;0.98;;;;;;;;;;5015973;28;20477;-40
2022/05/23 06:58:43;;;;;;;8.00;1.38;;;;;;;;;;5015089;28;20026;-40
2022/05/23 07:01:10;;;;;;;3.22;1.10;;;;;;;;;;5034024;28;20056;-39
2022/05/23 07:03:35;;;;;;;1.98;1.00;;;;;;;;;;5034843;28;20021;-39
2022/05/23 07:14:15;;;;;;;4.28;1.25;;;;;;;;;;5030390;28;20067;-40
2022/05/23 07:16:40;;;;;;;1.73;1.10;;;;;;;;;;5034730;28;20499;-40
2022/05/23 07:19:06;;;;;;;4.13;1.35;;;;;;;;;;5034617;28;20048;-42
2022/05/23 07:21:32;;;;;;;4.78;1.10;;;;;;;;;;5033333;28;20049;-40
2022/05/23 07:23:58;;;;;;;4.25;1.33;;;;;;;;;;5023139;28;20079;-41
2022/05/23 07:26:23;;;;;;;3.65;1.75;;;;;;;;;;5013697;28;20060;-40
2022/05/23 07:28:49;;;;;;;3.95;1.23;;;;;;;;;;5025350;28;20468;-40
2022/05/23 07:31:16;;;;;;;4.45;1.60;;;;;;;;;;5021642;28;20120;-40
2022/05/23 07:33:41;;;;;;;4.93;1.27;;;;;;;;;;5016534;28;20501;-43
2022/05/23 07:36:07;;;;;;;8.73;1.30;;;;;;;;;;5018527;28;20037;-41
2022/05/23 07:38:33;;;;;;;2.28;1.00;;;;;;;;;;5012461;28;20042;-40
2022/05/23 07:40:59;;;;;;;6.07;1.10;;;;;;;;;;5011627;28;20029;-45
2022/05/23 07:43:25;;;;;;;4.00;1.10;;;;;;;;;;5014097;28;20061;-41
2022/05/23 07:45:51;;;;;;;6.55;1.13;;;;;;;;;;5023290;28;20515;-41
2022/05/23 07:48:17;;;;;;;6.15;1.13;;;;;;;;;;5016313;28;20026;-49
2022/05/23 07:50:43;;;;;;;4.03;1.30;;;;;;;;;;5021270;28;20014;-40
2022/05/23 08:01:20;;;;;;;2.33;1.33;;;;;;;;;;5034731;28;20568;-41
2022/05/23 08:03:46;;;;;;;3.70;1.20;;;;;;;;;;5034305;28;20029;-41
2022/05/23 08:06:12;;;;;;;7.30;1.77;;;;;;;;;;5027568;28;20025;-41
2022/05/23 08:08:37;;;;;;;3.03;1.30;;;;;;;;;;5026604;28;20387;-43
2022/05/23 08:11:08;;;;;;;5.32;1.40;;;;;;;;;;5023382;28;20105;-42
2022/05/23 08:13:35;;;;;;;3.83;1.20;;;;;;;;;;5013917;28;20049;-41
2022/05/23 08:16:00;;;;;;;5.07;1.20;;;;;;;;;;5020839;28;20040;-41
2022/05/23 08:18:26;;;;;;;3.05;0.90;;;;;;;;;;5012976;28;20026;-42
2022/05/23 08:20:51;;;;;;;5.75;2.00;;;;;;;;;;5021422;28;20028;-40
2022/05/23 08:23:16;;;;;;;4.43;1.30;;;;;;;;;;5026816;28;20394;-41
2022/05/23 08:25:42;;;;;;;6.70;1.33;;;;;;;;;;5025313;28;20041;-41
2022/05/23 08:28:07;;;;;;;2.70;0.98;;;;;;;;;;5023325;28;20071;-40
2022/05/23 08:30:33;;;;;;;3.35;0.90;;;;;;;;;;5023807;28;20036;-40
2022/05/23 08:32:58;;;;;;;3.15;1.25;;;;;;;;;;5019463;28;20048;-45
2022/05/23 08:35:24;;;;;;;6.32;1.30;;;;;;;;;;5025166;28;20037;-41
2022/05/23 08:37:51;;;;;;;5.18;1.00;;;;;;;;;;5027726;28;20474;-41
2022/05/23 08:40:17;;;;;;;5.80;1.17;;;;;;;;;;5033040;28;20035;-40
2022/05/23 08:42:55;;;;;;;7.45;1.38;;;;;;;;;;5033177;28;20029;-40
2022/05/23 08:45:21;;;;;;;2.80;0.93;;;;;;;;;;5033010;28;20047;-39
2022/05/23 08:48:02;;;;;;;1.88;0.98;;;;;;;;;;5028430;28;20507;-38
2022/05/23 08:50:34;;;;;;;2.90;1.10;;;;;;;;;;5031454;28;20048;-39
2022/05/23 08:53:02;;;;;;;3.20;1.00;;;;;;;;;;5020410;28;20022;-39
2022/05/23 08:55:33;;;;;;;5.07;1.02;;;;;;;;;;5032750;28;20473;-41
2022/05/23 08:58:02;;;;;;;2.50;1.52;;;;;;;;;;5031490;28;20472;-38
2022/05/23 09:00:33;;;;;;;5.80;1.58;;;;;;;;;;5032620;28;20388;-39
2022/05/23 09:03:07;;;;;;;3.72;0.98;;;;;;;;;;5031901;28;20029;-39
2022/05/23 09:05:35;;;;;;;4.15;0.90;;;;;;;;;;5027395;28;20032;-39
2022/05/23 09:08:05;;;;;;;1.77;0.73;;;;;;;;;;5018404;28;20465;-38
2022/05/23 09:10:43;;;;;;;3.05;0.90;;;;;;;;;;5032488;28;20021;-39
2022/05/23 09:13:09;;;;;;;8.20;1.17;;;;;;;;;;5031280;28;20040;-38
2022/05/23 09:15:35;;;;;;;4.22;0.90;;;;;;;;;;5023715;28;20030;-38
2022/05/23 09:18:05;;;;;;;1.58;0.75;;;;;;;;;;5010680;28;20022;-39
2022/05/23 09:20:45;;;;;;;5.05;1.10;;;;;;;;;;5010151;28;20022;-39
2022/05/23 09:23:20;;;;;;;1.80;0.77;;;;;;;;;;5011769;28;20085;-38
2022/05/23 09:25:50;;;;;;;9.68;1.20;;;;;;;;;;5010994;28;20037;-39
2022/05/23 09:28:15;;;;;;;2.70;1.00;;;;;;;;;;5012028;28;20028;-38
2022/05/23 09:30:43;;;;;;;3.10;1.63;;;;;;;;;;5018359;28;20112;-39
2022/05/23 09:33:14;;;;;;;10.52;1.35;;;;;;;;;;5028907;28;20020;-40
2022/05/23 09:35:39;;;;;;;3.75;1.15;;;;;;;;;;5031341;28;20049;-41
2022/05/23 09:38:14;;;;;;;3.20;1.27;;;;;;;;;;5028423;28;20512;-42
2022/05/23 09:40:39;;;;;;;6.03;1.20;;;;;;;;;;5021887;28;20026;-43
2022/05/23 09:49:15;;;;;;;2.75;0.70;;;;;;;;;;5006900;28;20097;-40
2022/05/23 09:51:58;;;;;;;1.95;0.85;;;;;;;;;;5018878;28;20111;-39
2022/05/23 09:54:44;;;;;;;1.95;0.90;;;;;;;;;;5032103;28;20044;-39
2022/05/23 09:57:32;;;;;;;3.10;0.90;;;;;;;;;;5031307;28;20037;-42
2022/05/23 09:59:59;;;;;;;3.17;0.90;;;;;;;;;;5053069;28;20030;-39
2022/05/23 10:02:31;;;;;;;1.73;0.82;;;;;;;;;;5025862;28;20029;-39
2022/05/23 10:04:57;;;;;;;1.58;0.80;;;;;;;;;;5027522;28;20026;-39
2022/05/23 10:07:30;;;;;;;3.28;0.85;;;;;;;;;;5023931;28;20534;-39
2022/05/23 10:09:57;;;;;;;1.75;0.73;;;;;;;;;;5022927;28;20029;-39
2022/05/23 10:12:23;;;;;;;2.63;0.80;;;;;;;;;;5026223;28;20058;-39
2022/05/23 10:14:51;;;;;;;2.67;0.88;;;;;;;;;;5025442;28;20046;-38
2022/05/23 10:17:43;;;;;;;2.38;0.85;;;;;;;;;;5011927;28;20385;-39
2022/05/23 10:20:35;;;;;;;4.32;1.00;;;;;;;;;;5017508;28;20030;-41
2022/05/23 10:23:04;;;;;;;2.33;0.80;;;;;;;;;;5014609;28;20092;-43
2022/05/23 10:25:36;;;;;;;1.98;1.10;;;;;;;;;;5030229;28;20022;-41
2022/05/23 10:28:05;;;;;;;2.95;0.90;;;;;;;;;;5028989;28;20037;-41
2022/05/23 10:30:32;;;;;;;4.97;1.77;;;;;;;;;;5025243;28;20022;-44
2022/05/23 10:33:01;;;;;;;2.05;0.85;;;;;;;;;;5027427;28;20024;-42
2022/05/23 10:35:26;;;;;;;;;;;;;;;;;;5025564;28;20100;-42
2022/05/23 10:37:52;;;;;;;4.57;1.10;;;;;;;;;;5034151;28;19952;-42
2022/05/23 10:43:10;;;;;;;5.38;0.88;;;;;;;;;;5026153;28;20075;-43
2022/05/23 10:45:49;;;;;;;4.00;0.93;;;;;;;;;;5026655;28;20033;-40
2022/05/23 10:48:32;;;;;;;3.47;1.03;;;;;;;;;;5025570;28;20538;-41
2022/05/23 10:51:08;;;;;;;1.15;0.95;;;;;;;;;;5028145;28;20313;-41
2022/05/23 10:53:56;;;;;;;9.02;1.35;;;;;;;;;;5015306;28;20034;-40
2022/05/23 10:56:40;;;;;;;3.60;1.35;;;;;;;;;;5016052;28;20091;-50
2022/05/23 10:59:14;;;;;;;7.32;1.10;;;;;;;;;;5023793;28;20061;-41
2022/05/23 11:01:49;;;;;;;0.90;0.90;;;;;;;;;;5020336;28;20026;-42
2022/05/23 11:04:33;;;;;;;2.65;1.05;;;;;;;;;;5033824;28;20025;-43
2022/05/23 11:06:58;;;;;;;3.85;1.23;;;;;;;;;;5030973;28;20464;-42
2022/05/23 11:09:33;;;;;;;2.47;0.70;;;;;;;;;;5031648;28;20014;-42
2022/05/23 11:12:05;;;;;;;1.27;0.80;;;;;;;;;;5026429;28;20347;-41
2022/05/23 11:14:49;;;;;;;1.60;0.75;;;;;;;;;;5024983;28;20044;-41
2022/05/23 11:17:14;;;;;;;2.28;0.93;;;;;;;;;;5021668;28;20022;-42
2022/05/23 11:19:48;;;;;;;9.77;1.40;;;;;;;;;;5021259;28;20029;-43
2022/05/23 11:22:17;;;;;;;6.88;1.65;;;;;;;;;;5004193;28;20509;-42
2022/05/23 11:24:46;;;;;;;12.75;2.85;;;;;;;;;;5020446;28;20025;-42
2022/05/23 11:35:31;;;;;;;5.30;1.23;;;;;;;;;;5017259;28;20440;-48
2022/05/23 11:38:00;;;;;;;3.10;1.10;;;;;;;;;;5032886;28;20029;-47
2022/05/23 11:40:25;;;;;;;3.60;1.10;;;;;;;;;;5020419;28;20026;-44
2022/05/23 11:43:06;;;;;;;2.42;1.23;;;;;;;;;;5032049;28;20021;-44
2022/05/23 11:48:34;;;;;;;4.35;1.20;;;;;;;;;;5034050;28;20091;-42
2022/05/23 11:51:12;;;;;;;63.45;29.92;;;;;;;;;;5030579;28;20113;-43
2022/05/23 11:53:42;;;;;;;7.45;1.23;;;;;;;;;;5025454;28;20029;-43
2022/05/23 11:56:09;;;;;;;5.15;1.33;;;;;;;;;;5022202;28;20052;-45
2022/05/23 11:58:37;;;;;;;15.25;2.33;;;;;;;;;;5033139;28;20022;-41
2022/05/23 12:01:03;;;;;;;3.45;1.60;;;;;;;;;;5032281;28;20461;-45
2022/05/23 12:03:51;;;;;;;14.68;1.58;;;;;;;;;;5029273;28;20039;-48
2022/05/23 12:06:18;;;;;;;4.70;1.15;;;;;;;;;;5030979;28;20030;-46
2022/05/23 12:09:02;;;;;;;4.15;1.42;;;;;;;;;;5032302;28;20029;-46
2022/05/23 12:11:28;;;;;;;3.20;1.20;;;;;;;;;;5040712;28;20028;-44
2022/05/23 12:13:58;;;;;;;5.15;1.13;;;;;;;;;;5046433;28;20025;-44
2022/05/23 12:16:29;;;;;;;2.85;1.00;;;;;;;;;;5032626;28;20052;-43
2022/05/23 12:19:14;;;;;;;3.90;1.08;;;;;;;;;;5030146;28;20121;-44
2022/05/23 12:21:44;;;;;;;2.80;1.08;;;;;;;;;;5014012;28;20033;-42
2022/05/23 12:24:11;;;;;;;4.05;1.17;;;;;;;;;;5013628;28;20484;-42
2022/05/23 12:26:37;;;;;;;1.45;1.10;;;;;;;;;;5023425;28;20491;-43
2022/05/23 12:29:22;;;;;;;3.20;1.08;;;;;;;;;;5031360;28;20345;-45
2022/05/23 12:32:06;;;;;;;1.42;0.77;;;;;;;;;;5020548;28;20030;-45
2022/05/23 12:34:35;;;;;;;4.18;1.10;;;;;;;;;;5031603;28;20504;-46
2022/05/23 12:37:00;;;;;;;2.37;0.90;;;;;;;;;;5033064;28;20025;-44
2022/05/23 12:39:44;;;;;;;7.43;1.13;;;;;;;;;;5031870;28;20013;-46
2022/05/23 12:42:18;;;;;;;3.47;1.00;;;;;;;;;;5034340;28;20029;-48
2022/05/23 12:45:01;;;;;;;4.60;0.93;;;;;;;;;;5025051;28;20029;-45
2022/05/23 12:47:34;;;;;;;3.05;1.10;;;;;;;;;;5028192;28;20040;-48
2022/05/23 12:50:18;;;;;;;3.33;0.90;;;;;;;;;;5015964;28;20034;-41
2022/05/23 12:52:56;;;;;;;3.17;1.10;;;;;;;;;;5027421;28;20033;-43
2022/05/23 12:55:37;;;;;;;3.47;1.10;;;;;;;;;;5032727;28;20037;-43
2022/05/23 12:58:18;;;;;;;4.85;1.40;;;;;;;;;;5030740;28;20022;-48
2022/05/23 13:00:47;;;;;;;4.03;0.98;;;;;;;;;;5021950;28;20026;-51
2022/05/23 13:03:27;;;;;;;1.95;0.90;;;;;;;;;;5022689;28;20029;-45
2022/05/23 13:06:12;;;;;;;6.65;1.10;;;;;;;;;;5032795;28;20051;-44
2022/05/23 13:08:37;;;;;;;2.35;1.27;;;;;;;;;;5027428;28;20014;-46
2022/05/23 13:11:05;;;;;;;3.67;1.37;;;;;;;;;;5021976;28;20018;-43
2022/05/23 13:13:33;;;;;;;3.22;1.13;;;;;;;;;;5029923;28;20333;-43
2022/05/23 13:16:13;;;;;;;3.15;1.17;;;;;;;;;;5024576;28;20042;-41
2022/05/23 13:24:13;;;;;;;4.50;1.20;;;;;;;;;;5022589;28;20385;-41
2022/05/23 13:26:38;;;;;;;2.10;1.02;;;;;;;;;;5016134;28;20022;-41
2022/05/23 13:29:08;;;;;;;4.35;1.10;;;;;;;;;;5023091;28;20037;-41
2022/05/23 13:31:34;;;;;;;5.75;0.95;;;;;;;;;;5022628;28;20025;-43
2022/05/23 13:33:59;;;;;;;3.55;1.02;;;;;;;;;;5018962;28;20060;-44
2022/05/23 13:36:25;;;;;;;6.25;1.00;;;;;;;;;;5020334;28;20125;-42
2022/05/23 13:39:00;;;;;;;5.75;1.17;;;;;;;;;;5025903;28;20104;-41
2022/05/23 13:41:26;;;;;;;2.05;1.02;;;;;;;;;;5011703;28;20121;-41
2022/05/23 13:43:52;;;;;;;6.80;1.20;;;;;;;;;;5016950;28;20038;-42
2022/05/23 13:46:22;;;;;;;4.65;1.10;;;;;;;;;;5020019;28;20036;-40
2022/05/23 13:48:52;;;;;;;1.92;1.17;;;;;;;;;;5028535;28;20493;-40
2022/05/23 13:51:24;;;;;;;6.45;1.40;;;;;;;;;;5019321;28;20049;-41
2022/05/23 13:53:51;;;;;;;4.85;1.40;;;;;;;;;;5029131;28;20490;-41
2022/05/23 13:56:18;;;;;;;8.40;1.30;;;;;;;;;;5019895;28;20111;-41
2022/05/23 13:58:45;;;;;;;5.43;1.58;;;;;;;;;;5016707;28;20049;-44
2022/05/23 14:01:16;;;;;;;2.15;1.00;;;;;;;;;;5017635;28;20033;-41
2022/05/23 14:03:46;;;;;;;2.15;1.00;;;;;;;;;;5019150;28;20106;-41
2022/05/23 14:06:24;;;;;;;5.13;1.30;;;;;;;;;;5024095;28;20025;-42
2022/05/23 14:08:52;;;;;;;6.25;1.23;;;;;;;;;;5026415;28;20104;-40
2022/05/23 14:11:19;;;;;;;4.43;1.73;;;;;;;;;;5026103;28;20028;-43
2022/05/23 14:13:46;;;;;;;5.75;1.58;;;;;;;;;;5027189;28;20035;-45
2022/05/23 14:16:14;;;;;;;2.22;1.20;;;;;;;;;;5016639;28;20048;-43
2022/05/23 14:18:39;;;;;;;3.45;1.00;;;;;;;;;;5028783;28;20018;-41
2022/05/23 14:21:05;;;;;;;3.60;1.38;;;;;;;;;;5034612;28;20526;-42
2022/05/23 14:23:33;;;;;;;10.27;1.50;;;;;;;;;;5023065;28;20505;-42
2022/05/23 14:25:59;;;;;;;15.18;2.17;;;;;;;;;;5030484;28;20029;-41
2022/05/23 14:28:26;;;;;;;6.72;1.25;;;;;;;;;;5020112;28;20044;-41
2022/05/23 14:30:57;;;;;;;6.60;1.52;;;;;;;;;;5013591;28;20026;-43
2022/05/23 14:33:26;;;;;;;5.20;1.10;;;;;;;;;;5022942;28;20950;-43
2022/05/23 14:35:56;;;;;;;3.35;1.00;;;;;;;;;;5032266;28;20053;-41
2022/05/23 14:38:25;;;;;;;6.85;1.00;;;;;;;;;;5032411;28;20482;-41
2022/05/23 14:40:50;;;;;;;3.95;1.10;;;;;;;;;;5035915;28;20022;-41
2022/05/23 14:43:21;;;;;;;5.13;1.15;;;;;;;;;;5035839;28;20028;-41
2022/05/23 14:45:51;;;;;;;1.75;1.55;;;;;;;;;;5033694;28;20027;-42
2022/05/23 14:48:21;;;;;;;1.15;0.90;;;;;;;;;;5031202;28;20376;-43
2022/05/23 14:51:08;;;;;;;2.45;1.02;;;;;;;;;;5033681;28;20029;-43
2022/05/23 14:56:38;;;;;;;4.93;1.40;;;;;;;;;;5033337;28;20089;-41
2022/05/23 15:01:55;;;;;;;5.75;2.00;;;;;;;;;;5035684;28;20048;-41
2022/05/23 15:04:23;;;;;;;2.40;1.40;;;;;;;;;;5035848;28;20504;-40
2022/05/23 15:06:49;;;;;;;8.00;1.85;;;;;;;;;;5035627;28;20413;-40
2022/05/23 15:09:14;;;;;;;2.00;1.05;;;;;;;;;;5036110;28;20083;-41
2022/05/23 15:11:41;;;;;;;2.70;1.17;;;;;;;;;;5036014;28;20106;-40
2022/05/23 15:14:08;;;;;;;7.30;1.45;;;;;;;;;;5034450;28;20021;-40
2022/05/23 15:16:36;;;;;;;11.90;1.20;;;;;;;;;;5034248;28;20037;-40
2022/05/23 15:19:01;;;;;;;5.15;1.83;;;;;;;;;;5035271;28;20112;-40
2022/05/23 15:21:27;;;;;;;7.75;2.05;;;;;;;;;;5034280;28;20473;-40
2022/05/23 15:23:52;;;;;;;2.60;0.88;;;;;;;;;;5035327;28;20024;-40
2022/05/23 15:26:19;;;;;;;7.93;1.25;;;;;;;;;;5034240;28;20465;-40
2022/05/23 15:28:45;;;;;;;4.88;1.27;;;;;;;;;;5035402;28;20025;-40
2022/05/23 15:31:11;;;;;;;2.50;1.20;;;;;;;;;;5035269;28;20034;-40
2022/05/23 15:33:36;;;;;;;5.75;1.75;;;;;;;;;;5033832;28;20379;-40
2022/05/23 15:36:02;;;;;;;10.32;1.85;;;;;;;;;;5035496;28;20107;-40
2022/05/23 15:38:27;;;;;;;2.47;1.17;;;;;;;;;;5035338;28;20010;-40
2022/05/23 15:40:54;;;;;;;8.07;1.70;;;;;;;;;;5035337;28;20376;-40
2022/05/23 15:43:19;;;;;;;3.67;1.52;;;;;;;;;;5033915;28;20030;-40
2022/05/23 15:45:46;;;;;;;7.05;1.50;;;;;;;;;;5035445;28;20427;-40
2022/05/23 15:48:12;;;;;;;5.40;1.60;;;;;;;;;;5034758;28;20120;-40
2022/05/23 15:50:43;;;;;;;10.90;1.60;;;;;;;;;;5035212;28;20033;-40
2022/05/23 15:53:08;;;;;;;5.80;1.40;;;;;;;;;;5035135;28;20468;-40
2022/05/23 15:55:34;;;;;;;2.22;1.30;;;;;;;;;;5034745;28;20037;-40
2022/05/23 15:57:59;;;;;;;5.75;1.33;;;;;;;;;;5034744;28;20029;-40
2022/05/23 16:00:26;;;;;;;4.60;1.45;;;;;;;;;;5034791;28;20048;-40